메인 페이지
METAR-TAF:

METAR-TAF

공항 :

안탈리아 공항

안탈리아, 터키

위도: 36-42N, 경도: 030-44E, 고도: 50m

현재 날씨관측

예보는 42분 전, 07:20시(UTC)에 발표되었습니다.
11kt
온도 27°C
습도 18%
기압 1011 hPa
시정 10km 이상
1500m 미만 상공 구름 및 적란운 없음

METAR: LTAI 100720Z 01011KT CAVOK 27/01 Q1011 NOSIG RMK RWY18C 35012KT RWY36R 01011KT RWY18L 01010KT

시각: 11:02 (08:02 UTC)

예보

예보는 3 시간 22분 전, 04:40시(UTC)에 발표되었습니다.
예보 대상 시간: 10일 06시부터 11일 06시까지 (UTC)
북북서15kt, 순간 최대 풍속 25kt
시정 10km 이상
1500m 미만 상공 구름 및 적란운 없음
전환 중
10일 09시부터 10일 12시까지 (UTC)
12kt
전환 중
10일 15시부터 10일 18시까지 (UTC)
북북서9kt

TAF: LTAI 100440Z 1006/1106 34015G25KT CAVOK BECMG 1009/1012 19012KT BECMG 1015/1018 34009KT

4,000개 이상의 공항 관측 자료 및 예보 (METAR 및 TAF 보고).

지도상에서 검색 가능한 기상관측소가 노란 점과 빨간 점으로 표시되어 있습니다.

기상관측소 명을 보려면 표시 위로 마우스를 이동하세요.

날씨 관측과 예보를 보려면 클릭하세요.

지도 변경 : 확대하려면 엑스 표시가 있는 녹색 버튼, 축소하려면 빼기 표시가 있는 녹색 버튼, 다음 페이지의 지도를 보려면 녹색 화살표를 클릭하세요.


METAR-TAF: